Time;durP1;ratioP1;P1;durP2;ratioP2;P2;SDS_P1;SDS_P2;PMS_P1;PMS_P2;Temp;Humidity;BMP_temperature;BMP_pressure;BME280_temperature;BME280_humidity;BME280_pressure;Samples;Min_cycle;Max_cycle;Signal;HPM_P1;HPM_P2
2022/08/20 00:00:46;;;;;;;;;;;;;;;19.73;100.00;-25622.56;5076095;28;19942;-78
2022/08/20 00:03:30;;;;;;;;;;;;;;;19.72;100.00;-25622.13;5061837;28;20355;-79
2022/08/20 00:06:10;;;;;;;;;;;;;;;19.78;100.00;-25623.88;5064934;28;19945;-75
2022/08/20 00:08:36;;;;;;;;;;;;;;;19.80;100.00;-25624.44;5065576;28;20309;-75
2022/08/20 00:11:02;;;;;;;;;;;;;;;19.82;100.00;-25624.88;5055539;28;19920;-75
2022/08/20 00:13:33;;;;;;;;;;;;;;;19.78;100.00;-25623.72;5055680;28;19924;-75
2022/08/20 00:15:58;;;;;;;;;;;;;;;19.81;100.00;-25624.59;5066102;28;19920;-79
2022/08/20 00:18:24;;;;;;;;;;;;;;;19.83;100.00;-25625.31;5055712;28;20015;-73
2022/08/20 00:20:50;;;;;;;;;;;;;;;19.82;100.00;-25625.03;5056106;28;20063;-81
2022/08/20 00:23:17;;;;;;;;;;;;;;;19.80;100.00;-25624.31;5057509;28;19920;-79
2022/08/20 00:25:43;;;;;;;;;;;;;;;19.78;100.00;-25623.72;5074695;28;20292;-82
2022/08/20 00:28:09;;;;;;;;;;;;;;;19.78;100.00;-25623.72;5063838;28;19927;-82
2022/08/20 00:30:35;;;;;;;;;;;;;;;19.77;100.00;-25623.56;5075933;28;19920;-79
2022/08/20 00:33:09;;;;;;;;;;;;;;;19.70;100.00;-25621.56;5075253;28;19924;-81
2022/08/20 00:35:35;;;;;;;;;;;;;;;19.64;100.00;-25619.97;5075708;28;19920;-82
2022/08/20 00:38:00;;;;;;;;;;;;;;;19.64;100.00;-25619.97;5075542;28;20082;-82
2022/08/20 00:40:34;;;;;;;;;;;;;;;19.66;100.00;-25620.41;5065209;28;20398;-81
2022/08/20 00:43:04;;;;;;;;;;;;;;;19.49;100.00;-25615.63;5056775;28;20010;-82
2022/08/20 00:45:32;;;;;;;;;;;;;;;19.38;100.00;-25612.59;5062107;28;19974;-81
2022/08/20 00:47:57;;;;;;;;;;;;;;;19.27;100.00;-25609.56;5057354;28;19924;-81
2022/08/20 00:50:34;;;;;;;;;;;;;;;19.23;100.00;-25608.41;5056325;28;20016;-81
2022/08/20 00:53:01;;;;;;;;;;;;;;;19.00;100.00;-25602.06;5056894;28;19924;-76
2022/08/20 00:55:29;;;;;;;;;;;;;;;18.90;100.00;-25599.03;5074587;28;19923;-80
2022/08/20 00:57:56;;;;;;;;;;;;;;;18.79;100.00;-25596.00;5046462;28;19959;-77
2022/08/20 01:00:24;;;;;;;;;;;;;;;18.66;100.00;-25592.50;5063241;28;19936;-76
2022/08/20 01:02:50;;;;;;;;;;;;;;;18.57;100.00;-25589.91;5054242;28;19921;-77
2022/08/20 01:05:16;;;;;;;;;;;;;;;18.48;100.00;-25587.31;5053667;28;19926;-77
2022/08/20 01:07:43;;;;;;;;;;;;;;;18.44;100.00;-25586.16;5069735;28;20388;-76
2022/08/20 01:10:15;;;;;;;;;;;;;;;18.39;100.00;-25584.72;5070976;28;19920;-78
2022/08/20 01:12:45;;;;;;;;;;;;;;;18.37;100.00;-25584.28;5054803;28;20012;-78
2022/08/20 01:15:13;;;;;;;;;;;;;;;18.37;100.00;-25584.28;5062494;28;20517;-77
2022/08/20 01:17:42;;;;;;;;;;;;;;;18.41;100.00;-25585.44;5072441;28;19927;-82
2022/08/20 01:20:12;;;;;;;;;;;;;;;18.40;100.00;-25585.00;5074210;28;19920;-76
2022/08/20 01:25:45;;;;;;;;;;;;;;;18.34;100.00;-25583.25;5091032;28;19927;-76
2022/08/20 01:28:10;;;;;;;;;;;;;;;18.37;100.00;-25584.13;5056013;28;19944;-78
2022/08/20 01:30:36;;;;;;;;;;;;;;;18.34;100.00;-25583.25;5055729;28;19928;-75
2022/08/20 01:33:03;;;;;;;;;;;;;;;18.34;100.00;-25583.41;5054523;28;19920;-76
2022/08/20 01:35:29;;;;;;;;;;;;;;;18.30;100.00;-25582.41;5054051;28;19977;-78
2022/08/20 01:37:54;;;;;;;;;;;;;;;18.28;100.00;-25581.66;5059385;28;20011;-77
2022/08/20 01:40:33;;;;;;;;;;;;;;;18.26;100.00;-25581.22;5071714;28;19920;-75
2022/08/20 01:42:59;;;;;;;;;;;;;;;18.25;100.00;-25580.94;5059306;28;19926;-75
2022/08/20 01:45:26;;;;;;;;;;;;;;;18.16;100.00;-25578.34;5062622;28;19920;-76
2022/08/20 01:47:52;;;;;;;;;;;;;;;18.07;100.00;-25575.88;5073458;28;20361;-77
2022/08/20 01:50:23;;;;;;;;;;;;;;;17.98;100.00;-25573.13;5041334;28;20031;-76
2022/08/20 01:53:12;;;;;;;;;;;;;;;17.89;100.00;-25570.81;5072806;28;19958;-76
2022/08/20 01:55:38;;;;;;;;;;;;;;;17.81;100.00;-25568.50;5057845;28;19920;-76
2022/08/20 01:58:04;;;;;;;;;;;;;;;17.77;100.00;-25567.47;5058253;28;19926;-76
2022/08/20 02:00:31;;;;;;;;;;;;;;;17.74;100.00;-25566.47;5091893;28;19946;-76
2022/08/20 02:02:56;;;;;;;;;;;;;;;17.70;100.00;-25565.44;5072721;28;19974;-76
2022/08/20 02:05:22;;;;;;;;;;;;;;;17.66;100.00;-25564.28;5057102;28;20340;-78
2022/08/20 02:07:47;;;;;;;;;;;;;;;17.62;100.00;-25563.00;5071770;28;20376;-78
2022/08/20 02:10:14;;;;;;;;;;;;;;;17.62;100.00;-25563.13;5076943;28;19924;-76
2022/08/20 02:12:39;;;;;;;;;;;;;;;17.66;100.00;-25564.16;5075057;28;20634;-77
2022/08/20 02:15:07;;;;;;;;;;;;;;;17.66;100.00;-25564.28;5076462;28;20014;-77
2022/08/20 02:17:32;;;;;;;;;;;;;;;17.68;100.00;-25564.88;5076581;28;19923;-77
2022/08/20 02:20:00;;;;;;;;;;;;;;;17.58;100.00;-25562.13;5071048;28;19920;-77
2022/08/20 02:22:27;;;;;;;;;;;;;;;17.64;100.00;-25563.56;5076978;28;19935;-77
2022/08/20 02:24:53;;;;;;;;;;;;;;;17.63;100.00;-25563.28;5055156;28;19917;-78
2022/08/20 02:27:18;;;;;;;;;;;;;;;17.60;100.00;-25562.56;5067061;28;19926;-77
2022/08/20 02:29:45;;;;;;;;;;;;;;;17.59;100.00;-25562.41;5077241;28;19922;-79
2022/08/20 02:32:10;;;;;;;;;;;;;;;17.58;100.00;-25561.97;5076633;28;19985;-78
2022/08/20 02:34:36;;;;;;;;;;;;;;;17.59;100.00;-25562.25;5076410;28;19923;-78
2022/08/20 02:37:04;;;;;;;;;;;;;;;17.66;100.00;-25564.16;5048887;28;19935;-79
2022/08/20 02:39:29;;;;;;;;;;;;;;;17.58;100.00;-25561.97;5058784;28;19950;-78
2022/08/20 02:41:55;;;;;;;;;;;;;;;17.66;100.00;-25564.28;5056728;28;20479;-78
2022/08/20 02:44:20;;;;;;;;;;;;;;;17.70;100.00;-25565.44;5072700;28;20381;-78
2022/08/20 02:46:51;;;;;;;;;;;;;;;17.65;100.00;-25563.84;5065622;28;19924;-77
2022/08/20 02:49:17;;;;;;;;;;;;;;;17.56;100.00;-25561.41;5056642;28;20365;-77
2022/08/20 02:51:42;;;;;;;;;;;;;;;17.52;100.00;-25560.38;5056595;28;19920;-82
2022/08/20 02:54:08;;;;;;;;;;;;;;;17.50;100.00;-25559.66;5073064;28;19924;-77
2022/08/20 02:56:33;;;;;;;;;;;;;;;17.49;100.00;-25559.50;5057844;28;19920;-75
2022/08/20 02:58:59;;;;;;;;;;;;;;;17.53;100.00;-25560.53;5056237;28;19920;-77
2022/08/20 03:01:26;;;;;;;;;;;;;;;17.55;100.00;-25561.25;5056935;28;20368;-79
2022/08/20 03:03:51;;;;;;;;;;;;;;;17.58;100.00;-25562.13;5069351;28;19959;-78
2022/08/20 03:06:16;;;;;;;;;;;;;;;17.61;100.00;-25562.84;5076681;28;19966;-81
2022/08/20 03:08:42;;;;;;;;;;;;;;;17.63;100.00;-25563.28;5057785;28;19926;-83
2022/08/20 03:11:08;;;;;;;;;;;;;;;17.64;100.00;-25563.56;5057913;28;19912;-82
2022/08/20 03:13:38;;;;;;;;;;;;;;;17.60;100.00;-25562.56;5062748;28;19973;-80
2022/08/20 03:16:04;;;;;;;;;;;;;;;17.66;100.00;-25564.16;5076959;28;19916;-83
2022/08/20 03:18:31;;;;;;;;;;;;;;;17.54;100.00;-25560.81;5077136;28;19942;-82
2022/08/20 03:20:58;;;;;;;;;;;;;;;17.48;100.00;-25559.22;5076070;28;19916;-82
2022/08/20 03:23:28;;;;;;;;;;;;;;;17.45;100.00;-25558.19;5077145;28;19919;-82
2022/08/20 03:25:53;;;;;;;;;;;;;;;17.45;100.00;-25558.34;5058078;28;20015;-80
2022/08/20 03:28:18;;;;;;;;;;;;;;;17.42;100.00;-25557.47;5060827;28;20361;-82
2022/08/20 03:30:44;;;;;;;;;;;;;;;17.43;100.00;-25557.78;5057314;28;20356;-82
2022/08/20 03:33:09;;;;;;;;;;;;;;;17.37;100.00;-25556.03;5058550;28;19924;-77
2022/08/20 03:35:36;;;;;;;;;;;;;;;17.34;100.00;-25555.31;5068211;28;20019;-77
2022/08/20 03:38:04;;;;;;;;;;;;;;;17.37;100.00;-25556.03;5082988;28;20280;-75
2022/08/20 03:40:31;;;;;;;;;;;;;;;17.37;100.00;-25556.03;5076124;28;19958;-79
2022/08/20 03:42:57;;;;;;;;;;;;;;;17.30;100.00;-25554.16;5075538;28;19916;-78
2022/08/20 03:45:24;;;;;;;;;;;;;;;17.25;100.00;-25552.69;5075429;28;19920;-80
2022/08/20 03:47:50;;;;;;;;;;;;;;;17.28;100.00;-25553.56;5064780;28;19924;-76
2022/08/20 03:50:17;;;;;;;;;;;;;;;17.33;100.00;-25554.88;5055796;28;19927;-76
2022/08/20 03:52:43;;;;;;;;;;;;;;;17.33;100.00;-25555.00;5073407;28;19917;-76
2022/08/20 03:55:08;;;;;;;;;;;;;;;17.32;100.00;-25554.72;5060405;28;20295;-79
2022/08/20 03:57:34;;;;;;;;;;;;;;;17.27;100.00;-25553.13;5065340;28;20391;-76
2022/08/20 04:00:01;;;;;;;;;;;;;;;17.16;100.00;-25550.22;5059262;28;20392;-77
2022/08/20 04:02:27;;;;;;;;;;;;;;;17.05;100.00;-25547.03;5064742;28;19923;-77
2022/08/20 04:04:53;;;;;;;;;;;;;;;17.01;100.00;-25545.88;5075501;28;19920;-80
2022/08/20 04:07:24;;;;;;;;;;;;;;;16.99;100.00;-25545.31;5074990;28;19920;-77
2022/08/20 04:09:52;;;;;;;;;;;;;;;16.97;100.00;-25544.88;5075598;28;19920;-80
2022/08/20 04:12:19;;;;;;;;;;;;;;;16.95;100.00;-25544.16;5073863;28;19927;-77
2022/08/20 04:14:44;;;;;;;;;;;;;;;16.85;100.00;-25541.38;5062969;28;19924;-76
2022/08/20 04:17:11;;;;;;;;;;;;;;;16.81;100.00;-25540.38;5055252;28;19916;-76
2022/08/20 04:19:37;;;;;;;;;;;;;;;16.77;100.00;-25539.22;5055915;28;19928;-76
2022/08/20 04:22:02;;;;;;;;;;;;;;;16.68;100.00;-25536.75;5063327;28;19942;-77
2022/08/20 04:24:29;;;;;;;;;;;;;;;16.59;100.00;-25533.97;5075282;28;19917;-77
2022/08/20 04:26:56;;;;;;;;;;;;;;;16.58;100.00;-25533.69;5073719;28;20388;-76
2022/08/20 04:29:23;;;;;;;;;;;;;;;16.56;100.00;-25533.09;5058577;28;19923;-76
2022/08/20 04:31:49;;;;;;;;;;;;;;;16.50;100.00;-25531.66;5064229;28;19986;-77
2022/08/20 04:34:17;;;;;;;;;;;;;;;16.50;100.00;-25531.53;5054574;28;20374;-83
2022/08/20 04:36:42;;;;;;;;;;;;;;;16.46;100.00;-25530.50;5060780;28;19974;-82
2022/08/20 04:39:08;;;;;;;;;;;;;;;16.46;100.00;-25530.50;5055710;28;19920;-81
2022/08/20 04:41:34;;;;;;;;;;;;;;;16.43;100.00;-25529.47;5055551;28;19939;-80
2022/08/20 04:44:01;;;;;;;;;;;;;;;16.40;100.00;-25528.63;5054954;28;19920;-81
2022/08/20 04:46:27;;;;;;;;;;;;;;;16.35;100.00;-25527.31;5054981;28;19920;-83
2022/08/20 04:48:53;;;;;;;;;;;;;;;16.33;100.00;-25526.88;5054586;28;19924;-78
2022/08/20 04:51:19;;;;;;;;;;;;;;;16.32;100.00;-25526.44;5056588;28;20350;-81
2022/08/20 04:53:52;;;;;;;;;;;;;;;16.33;100.00;-25526.72;5055029;28;19924;-81
2022/08/20 04:56:22;;;;;;;;;;;;;;;16.32;100.00;-25526.44;5065787;28;19991;-81
2022/08/20 04:58:49;;;;;;;;;;;;;;;16.34;100.00;-25527.00;5055529;28;19923;-83
2022/08/20 05:01:16;;;;;;;;;;;;;;;16.30;100.00;-25525.84;5055128;28;20372;-84
2022/08/20 05:03:43;;;;;;;;;;;;;;;16.28;100.00;-25525.41;5069499;28;20961;-85
2022/08/20 05:06:09;;;;;;;;;;;;;;;16.28;100.00;-25525.41;5071538;28;19982;-77
2022/08/20 05:08:37;;;;;;;;;;;;;;;16.27;100.00;-25524.97;5073297;28;19916;-78
2022/08/20 05:11:04;;;;;;;;;;;;;;;16.49;100.00;-25531.38;5092253;28;19916;-78
2022/08/20 05:13:32;;;;;;;;;;;;;;;16.74;100.00;-25538.19;5073982;28;19921;-78
2022/08/20 05:16:00;;;;;;;;;;;;;;;17.25;100.00;-25552.69;5057317;28;19928;-78
2022/08/20 05:18:26;;;;;;;;;;;;;;;18.06;100.00;-25575.44;5080535;28;19942;-78
2022/08/20 05:20:52;;;;;;;;;;;;;;;18.78;100.00;-25595.84;5074418;28;19920;-78
2022/08/20 05:23:19;;;;;;;;;;;;;;;19.13;100.00;-25605.66;5072872;28;19916;-79
2022/08/20 05:25:46;;;;;;;;;;;;;;;19.32;100.00;-25611.00;5074124;28;20665;-77
2022/08/20 05:28:23;;;;;;;;;;;;;;;19.24;100.00;-25608.56;5055583;28;19927;-79
2022/08/20 05:30:49;;;;;;;;;;;;;;;19.24;100.00;-25608.56;5055510;28;20349;-80
2022/08/20 05:33:18;;;;;;;;;;;;;;;18.92;100.00;-25599.75;5057858;28;20026;-79
2022/08/20 05:35:45;;;;;;;;;;;;;;;18.84;100.00;-25597.56;5058157;28;19970;-78
2022/08/20 05:38:13;;;;;;;;;;;;;;;19.28;100.00;-25609.72;5074396;28;19955;-80
2022/08/20 05:40:39;;;;;;;;;;;;;;;20.04;100.00;-25631.06;5077939;28;20276;-79
2022/08/20 05:43:05;;;;;;;;;;;;;;;21.01;100.00;-25658.31;5076599;28;20019;-82
2022/08/20 05:45:32;;;;;;;;;;;;;;;22.07;100.00;-25687.94;5075940;28;20010;-83
2022/08/20 05:47:57;;;;;;;;;;;;;;;23.08;100.00;-16716.63;5074267;28;20030;-82
2022/08/20 05:50:23;;;;;;;;;;;;;;;24.03;100.00;13460.22;5078358;28;20023;-83
2022/08/20 05:52:50;;;;;;;;;;;;;;;24.29;100.00;78692.69;5070118;28;20006;-83
2022/08/20 05:55:15;;;;;;;;;;;;;;;24.65;100.00;148911.91;5062223;28;19931;-83
2022/08/20 05:57:41;;;;;;;;;;;;;;;24.00;100.00;148751.34;5061847;28;19924;-83
2022/08/20 06:00:08;;;;;;;;;;;;;;;23.10;100.00;148525.31;5078362;28;19923;-83
2022/08/20 06:05:19;;;;;;;;;;;;;;;23.33;100.00;148581.78;5096320;28;20026;-82
2022/08/20 06:07:45;;;;;;;;;;;;;;;23.39;100.00;148598.47;5078963;28;19956;-84
2022/08/20 06:10:11;;;;;;;;;;;;;;;23.26;100.00;148565.13;5060327;28;19971;-81
2022/08/20 06:12:37;;;;;;;;;;;;;;;23.10;100.00;148525.31;5074186;28;19920;-79
2022/08/20 06:15:04;;;;;;;;;;;;;;;22.45;100.00;148363.63;5070283;28;19921;-78
2022/08/20 06:17:32;;;;;;;;;;;;;;;21.97;100.00;148244.28;5074307;28;19927;-80
2022/08/20 06:20:00;;;;;;;;;;;;;;;21.49;100.00;148125.00;5074423;28;19921;-78
2022/08/20 06:22:26;;;;;;;;;;;;;;;21.40;100.00;148100.63;5076493;28;19942;-80
2022/08/20 06:24:53;;;;;;;;;;;;;;;21.45;100.00;148114.69;5069472;28;19944;-79
2022/08/20 06:27:19;;;;;;;;;;;;;;;21.40;100.00;148101.88;5056958;28;19924;-78
2022/08/20 06:29:46;;;;;;;;;;;;;;;21.24;100.00;148060.84;5057272;28;20329;-76
2022/08/20 06:32:12;;;;;;;;;;;;;;;21.41;100.00;148103.16;5057193;28;19925;-77
2022/08/20 06:34:37;;;;;;;;;;;;;;;21.39;100.00;148098.03;5057319;28;19920;-78
2022/08/20 06:37:13;;;;;;;;;;;;;;;21.07;100.00;148019.84;5056644;28;19920;-78
2022/08/20 06:39:38;;;;;;;;;;;;;;;20.94;100.00;147987.81;5057018;28;20431;-77
2022/08/20 06:42:03;;;;;;;;;;;;;;;20.66;100.00;147916.03;5057159;28;20066;-81
2022/08/20 06:44:32;;;;;;;;;;;;;;;21.15;100.00;148040.34;5057446;28;19916;-82
2022/08/20 06:47:02;;;;;;;;;;;;;;;22.05;100.00;148263.50;5056526;28;19993;-79
2022/08/20 06:49:28;;;;;;;;;;;;;;;23.14;100.00;148535.59;5056562;28;19939;-80
2022/08/20 06:51:53;;;;;;;;;;;;;;;23.30;100.00;148575.34;5056133;28;20364;-81
2022/08/20 06:54:18;;;;;;;;;;;;;;;22.86;100.00;148466.22;5055636;28;19917;-78
2022/08/20 06:56:45;;;;;;;;;;;;;;;22.28;100.00;148319.91;5056486;28;19912;-79
2022/08/20 06:59:10;;;;;;;;;;;;;;;22.00;100.00;148250.66;5056059;28;19916;-77
2022/08/20 07:01:35;;;;;;;;;;;;;;;21.44;100.00;148110.84;5055773;28;19925;-78
2022/08/20 07:04:01;;;;;;;;;;;;;;;21.50;100.00;148126.28;5055976;28;19975;-79
2022/08/20 07:06:26;;;;;;;;;;;;;;;21.84;100.00;148212.16;5057124;28;20380;-80
2022/08/20 07:08:52;;;;;;;;;;;;;;;22.32;100.00;148331.50;5055607;28;20387;-80
2022/08/20 07:11:19;;;;;;;;;;;;;;;23.56;100.00;148639.56;5055640;28;19955;-78
2022/08/20 07:13:47;;;;;;;;;;;;;;;24.84;100.00;148959.44;5055581;28;20015;-79
2022/08/20 07:16:13;;;;;;;;;;;;;;;26.10;100.00;149275.78;5054845;28;19916;-75
2022/08/20 07:18:38;;;;;;;;;;;;;;;26.67;100.00;149418.53;5055960;28;19939;-77
2022/08/20 07:21:03;;;;;;;;;;;;;;;26.89;100.00;149471.31;5055523;28;19970;-79
2022/08/20 07:23:30;;;;;;;;;;;;;;;26.86;100.00;149464.84;5054850;28;20015;-77
2022/08/20 07:25:55;;;;;;;;;;;;;;;27.14;100.00;149534.34;5058392;28;19975;-76
2022/08/20 07:28:23;;;;;;;;;;;;;;;27.67;100.00;149668.25;5057725;28;19960;-77
2022/08/20 07:33:33;;;;;;;;;;;;;;;26.69;100.00;149423.72;5093160;28;20045;-78
2022/08/20 07:35:59;;;;;;;;;;;;;;;27.17;100.00;149543.34;5073881;28;19920;-77
2022/08/20 07:38:26;;;;;;;;;;;;;;;26.87;100.00;149468.72;5075666;28;20295;-79
2022/08/20 07:40:52;;;;;;;;;;;;;;;26.97;100.00;149491.88;5076143;28;20376;-79
2022/08/20 07:43:18;;;;;;;;;;;;;;;27.15;100.00;149538.19;5073338;28;19916;-79
2022/08/20 07:45:43;;;;;;;;;;;;;;;26.76;100.00;149439.16;5055593;28;20384;-76
2022/08/20 07:48:10;;;;;;;;;;;;;;;26.01;100.00;149252.63;5055367;28;19921;-75
2022/08/20 07:50:35;;;;;;;;;;;;;;;26.28;100.00;149319.47;5053437;28;19999;-75
2022/08/20 07:53:01;;;;;;;;;;;;;;;27.35;100.00;149587.16;5052944;28;20391;-74
2022/08/20 07:55:29;;;;;;;;;;;;;;;26.97;100.00;149493.19;5058719;28;19920;-75
2022/08/20 07:57:56;;;;;;;;;;;;;;;27.72;100.00;149681.13;5067860;28;19916;-72
2022/08/20 08:00:22;;;;;;;;;;;;;;;28.26;100.00;149816.34;5055805;28;19959;-75
2022/08/20 08:02:48;;;;;;;;;;;;;;;28.38;100.00;149844.66;5054419;28;20016;-74
2022/08/20 08:05:14;;;;;;;;;;;;;;;28.08;100.00;149770.00;5056877;28;20267;-76
2022/08/20 08:07:40;;;;;;;;;;;;;;;28.44;100.00;149861.38;5054316;28;19917;-77
2022/08/20 08:10:07;;;;;;;;;;;;;;;27.89;100.00;149722.28;5053590;28;19960;-75
2022/08/20 08:12:36;;;;;;;;;;;;;;;27.93;100.00;149732.59;5053104;28;19955;-80
2022/08/20 08:15:05;;;;;;;;;;;;;;;28.50;100.00;149874.28;5053280;28;19920;-79
2022/08/20 08:17:31;;;;;;;;;;;;;;;28.80;100.00;149951.59;5054367;28;19956;-78
2022/08/20 08:19:58;;;;;;;;;;;;;;;28.49;100.00;149872.97;5052967;28;20304;-77
2022/08/20 08:22:23;;;;;;;;;;;;;;;29.09;100.00;150022.47;5054087;28;19923;-80
2022/08/20 08:24:49;;;;;;;;;;;;;;;28.39;100.00;149847.25;5053450;28;19917;-78
2022/08/20 08:27:17;;;;;;;;;;;;;;;27.96;100.00;149739.09;5054680;28;20368;-80
2022/08/20 08:29:42;;;;;;;;;;;;;;;27.60;100.00;149650.22;5056374;28;19921;-79
2022/08/20 08:32:08;;;;;;;;;;;;;;;28.18;100.00;149795.72;5055180;28;19916;-78
2022/08/20 08:34:34;;;;;;;;;;;;;;;28.35;100.00;149836.94;5055537;28;19960;-79
2022/08/20 08:37:01;;;;;;;;;;;;;;;27.85;100.00;149713.28;5055217;28;19923;-81
2022/08/20 08:39:27;;;;;;;;;;;;;;;26.72;100.00;149430.13;5059073;28;19943;-78
2022/08/20 08:41:53;;;;;;;;;;;;;;;26.67;100.00;149417.28;5074423;28;20364;-79
2022/08/20 08:44:22;;;;;;;;;;;;;;;26.60;100.00;149399.19;5076433;28;19916;-80
2022/08/20 08:46:49;;;;;;;;;;;;;;;26.31;100.00;149328.47;5056633;28;19923;-79
2022/08/20 08:49:21;;;;;;;;;;;;;;;25.96;100.00;149239.69;5053039;28;19974;-75
2022/08/20 08:51:50;;;;;;;;;;;;;;;26.53;100.00;149382.50;5053104;28;19916;-75
2022/08/20 08:54:17;;;;;;;;;;;;;;;26.86;100.00;149466.19;5086625;28;19916;-79
2022/08/20 08:56:42;;;;;;;;;;;;;;;26.76;100.00;149440.44;5053460;28;19916;-75
2022/08/20 08:59:08;;;;;;;;;;;;;;;26.23;100.00;149306.63;5052949;28;19920;-79
2022/08/20 09:01:38;;;;;;;;;;;;;;;26.62;100.00;149404.38;5052363;28;19924;-78
2022/08/20 09:04:04;;;;;;;;;;;;;;;26.81;100.00;149453.28;5052275;28;20376;-77
2022/08/20 09:06:30;;;;;;;;;;;;;;;26.36;100.00;149338.78;5087048;28;19928;-75
2022/08/20 09:08:59;;;;;;;;;;;;;;;26.26;100.00;149314.34;5051750;28;19920;-72
2022/08/20 09:11:25;;;;;;;;;;;;;;;26.67;100.00;149417.28;5052878;28;19917;-74
2022/08/20 09:13:53;;;;;;;;;;;;;;;26.57;100.00;149391.47;5052614;28;20023;-80
2022/08/20 09:16:18;;;;;;;;;;;;;;;26.60;100.00;149400.50;5052593;28;20289;-78
2022/08/20 09:18:44;;;;;;;;;;;;;;;26.68;100.00;149421.13;5053510;28;19917;-79
2022/08/20 09:21:09;;;;;;;;;;;;;;;27.23;100.00;149558.78;5052750;28;19916;-80
2022/08/20 09:23:35;;;;;;;;;;;;;;;27.09;100.00;149522.75;5052595;28;20018;-78
2022/08/20 09:26:00;;;;;;;;;;;;;;;27.18;100.00;149545.91;5053385;28;19974;-81
2022/08/20 09:28:25;;;;;;;;;;;;;;;26.82;100.00;149455.88;5051773;28;20003;-74
2022/08/20 09:30:51;;;;;;;;;;;;;;;27.35;100.00;149587.16;5053363;28;19920;-78
2022/08/20 09:33:16;;;;;;;;;;;;;;;26.34;100.00;149336.19;5052837;28;20285;-77
2022/08/20 09:35:44;;;;;;;;;;;;;;;25.30;100.00;149075.16;5052438;28;19923;-77
2022/08/20 09:38:10;;;;;;;;;;;;;;;25.17;100.00;149041.69;5052914;28;19917;-77
2022/08/20 09:40:35;;;;;;;;;;;;;;;24.86;100.00;148964.56;5053159;28;20268;-78
2022/08/20 09:43:02;;;;;;;;;;;;;;;24.38;100.00;148846.34;5051590;28;20027;-77
2022/08/20 09:45:27;;;;;;;;;;;;;;;24.41;100.00;148851.47;5087145;28;19916;-80
2022/08/20 09:47:52;;;;;;;;;;;;;;;24.43;100.00;148856.66;5053505;28;19927;-80
2022/08/20 09:50:18;;;;;;;;;;;;;;;24.60;100.00;148899.09;5052536;28;19917;-80
2022/08/20 09:52:46;;;;;;;;;;;;;;;24.97;100.00;148992.88;5053088;28;19913;-79
2022/08/20 09:55:11;;;;;;;;;;;;;;;24.93;100.00;148982.56;5053069;28;19920;-78
2022/08/20 09:57:36;;;;;;;;;;;;;;;24.88;100.00;148969.75;5085860;28;20288;-78
2022/08/20 10:00:07;;;;;;;;;;;;;;;25.15;100.00;149036.53;5053231;28;19923;-79
2022/08/20 10:02:32;;;;;;;;;;;;;;;24.98;100.00;148995.41;5053638;28;19948;-79
2022/08/20 10:04:58;;;;;;;;;;;;;;;25.42;100.00;149104.75;5069761;28;19928;-80
2022/08/20 10:07:23;;;;;;;;;;;;;;;25.59;100.00;149147.13;5071812;28;19917;-80
2022/08/20 10:09:49;;;;;;;;;;;;;;;25.57;100.00;149141.97;5053560;28;19917;-78
2022/08/20 10:12:14;;;;;;;;;;;;;;;25.82;100.00;149203.69;5051674;28;19931;-80
2022/08/20 10:14:39;;;;;;;;;;;;;;;25.83;100.00;149207.56;5071193;28;19917;-79
2022/08/20 10:17:05;;;;;;;;;;;;;;;25.45;100.00;149112.44;5054579;28;19917;-80
2022/08/20 10:19:30;;;;;;;;;;;;;;;25.31;100.00;149076.44;5056135;28;19923;-79
2022/08/20 10:21:56;;;;;;;;;;;;;;;25.30;100.00;149075.16;5056798;28;19977;-81
2022/08/20 10:24:22;;;;;;;;;;;;;;;25.09;100.00;149023.72;5056504;28;19927;-80
2022/08/20 10:26:48;;;;;;;;;;;;;;;24.86;100.00;148965.88;5055723;28;20408;-76
2022/08/20 10:29:14;;;;;;;;;;;;;;;24.73;100.00;148933.78;5056417;28;19920;-80
2022/08/20 10:31:39;;;;;;;;;;;;;;;24.43;100.00;148856.66;5056369;28;20266;-80
2022/08/20 10:34:05;;;;;;;;;;;;;;;24.61;100.00;148902.94;5055952;28;20388;-80
2022/08/20 10:36:30;;;;;;;;;;;;;;;24.61;100.00;148902.94;5057306;28;19917;-78
2022/08/20 10:38:55;;;;;;;;;;;;;;;24.79;100.00;148946.59;5055182;28;19946;-73
2022/08/20 10:41:21;;;;;;;;;;;;;;;24.80;100.00;148949.19;5055745;28;20432;-78
2022/08/20 10:43:46;;;;;;;;;;;;;;;25.35;100.00;149088.00;5073121;28;19921;-78
2022/08/20 10:46:12;;;;;;;;;;;;;;;25.44;100.00;149111.13;5055249;28;19924;-80
2022/08/20 10:48:37;;;;;;;;;;;;;;;25.84;100.00;149208.81;5056531;28;20059;-78
2022/08/20 10:51:03;;;;;;;;;;;;;;;25.94;100.00;149234.56;5055855;28;20386;-79
2022/08/20 10:53:28;;;;;;;;;;;;;;;25.94;100.00;149235.81;5055135;28;19917;-81
2022/08/20 10:55:54;;;;;;;;;;;;;;;26.37;100.00;149342.63;5055267;28;19959;-77
2022/08/20 10:58:20;;;;;;;;;;;;;;;26.47;100.00;149368.31;5056235;28;20057;-79
2022/08/20 11:00:46;;;;;;;;;;;;;;;26.67;100.00;149417.28;5055006;28;19970;-77
2022/08/20 11:03:11;;;;;;;;;;;;;;;26.92;100.00;149480.28;5055746;28;19924;-79
2022/08/20 11:05:37;;;;;;;;;;;;;;;27.18;100.00;149545.91;5055521;28;19921;-78
2022/08/20 11:08:03;;;;;;;;;;;;;;;26.75;100.00;149436.56;5054702;28;19917;-80
2022/08/20 11:10:29;;;;;;;;;;;;;;;26.72;100.00;149430.13;5055672;28;20340;-79
2022/08/20 11:12:54;;;;;;;;;;;;;;;26.47;100.00;149367.06;5055518;28;19916;-77
2022/08/20 11:15:19;;;;;;;;;;;;;;;26.70;100.00;149425.00;5054932;28;19920;-79
2022/08/20 11:17:45;;;;;;;;;;;;;;;26.14;100.00;149286.03;5055951;28;19924;-78
2022/08/20 11:20:12;;;;;;;;;;;;;;;26.22;100.00;149304.03;5055945;28;20364;-78
2022/08/20 11:22:38;;;;;;;;;;;;;;;25.88;100.00;149219.13;5055315;28;20225;-80
2022/08/20 11:25:04;;;;;;;;;;;;;;;25.54;100.00;149134.28;5054913;28;19916;-74
2022/08/20 11:27:31;;;;;;;;;;;;;;;25.69;100.00;149171.56;5055269;28;19939;-80
2022/08/20 11:29:57;;;;;;;;;;;;;;;25.98;100.00;149246.19;5054567;28;19948;-76
2022/08/20 11:32:23;;;;;;;;;;;;;;;26.04;100.00;149260.34;5056037;28;19919;-81
2022/08/20 11:34:48;;;;;;;;;;;;;;;26.17;100.00;149291.19;5056484;28;19942;-79
2022/08/20 11:37:14;;;;;;;;;;;;;;;26.37;100.00;149341.31;5072972;28;19997;-79
2022/08/20 11:39:40;;;;;;;;;;;;;;;26.64;100.00;149410.78;5058400;28;19927;-76
2022/08/20 11:42:05;;;;;;;;;;;;;;;26.53;100.00;149382.50;5056255;28;19916;-77
2022/08/20 11:44:30;;;;;;;;;;;;;;;26.91;100.00;149477.75;5063114;28;20499;-78
2022/08/20 11:47:01;;;;;;;;;;;;;;;26.85;100.00;149463.59;5055635;28;19917;-76
2022/08/20 11:49:27;;;;;;;;;;;;;;;27.13;100.00;149531.75;5054687;28;19959;-78
2022/08/20 11:51:52;;;;;;;;;;;;;;;26.69;100.00;149423.72;5073980;28;19943;-77
2022/08/20 11:54:19;;;;;;;;;;;;;;;26.15;100.00;149288.63;5059064;28;19917;-77
2022/08/20 11:56:45;;;;;;;;;;;;;;;25.82;100.00;149203.69;5058648;28;19919;-81
2022/08/20 11:59:10;;;;;;;;;;;;;;;25.66;100.00;149165.13;5088541;28;19924;-79
2022/08/20 12:01:37;;;;;;;;;;;;;;;25.72;100.00;149180.56;5088264;28;20381;-81
2022/08/20 12:04:02;;;;;;;;;;;;;;;25.13;100.00;149031.41;5053523;28;19931;-80
2022/08/20 12:06:28;;;;;;;;;;;;;;;25.22;100.00;149055.81;5054952;28;20304;-82
2022/08/20 12:08:53;;;;;;;;;;;;;;;25.13;100.00;149031.41;5088801;28;19919;-77
2022/08/20 12:11:18;;;;;;;;;;;;;;;24.77;100.00;148942.75;5053059;28;20377;-79
2022/08/20 12:13:44;;;;;;;;;;;;;;;24.72;100.00;148929.91;5054123;28;20478;-77
2022/08/20 12:16:10;;;;;;;;;;;;;;;24.96;100.00;148989.00;5053909;28;20029;-78
2022/08/20 12:18:35;;;;;;;;;;;;;;;24.63;100.00;148908.06;5053618;28;19967;-80
2022/08/20 12:21:00;;;;;;;;;;;;;;;24.68;100.00;148920.91;5054018;28;20118;-78
2022/08/20 12:23:25;;;;;;;;;;;;;;;24.70;100.00;148926.06;5054324;28;19924;-76
2022/08/20 12:25:51;;;;;;;;;;;;;;;24.78;100.00;148944.03;5086347;28;20285;-77
2022/08/20 12:28:16;;;;;;;;;;;;;;;24.58;100.00;148895.22;5053942;28;19917;-78
2022/08/20 12:30:42;;;;;;;;;;;;;;;24.10;100.00;148775.72;5053927;28;19968;-79
2022/08/20 12:33:07;;;;;;;;;;;;;;;23.87;100.00;148717.94;5053055;28;20336;-78